KOAJ/OAJ METAR and TAF weather

Enter ICAO airport designator
Station Type Date Time Source
KOAJ METAR 2020/04/09 08:56 UTC NOAA

KOAJ 090856Z AUTO 25003KT 9SM CLR 16/16 A2959 RMK AO2 SLP020 T01610156 56017


Station Type Date Time Source
KOAJ Decoded METAR 2020/04/09 08:56 UTC NOAA

Jacksonville, Albert J Ellis Airport, NC, United States (KOAJ) 34-50N 077-37W
Apr 09, 2020 - 04:56 AM EDT / 2020.04.09 0856 UTC
Wind: from the WSW (250 degrees) at 3 MPH (3 KT):0
Visibility: 9 mile(s):0
Sky conditions: clear
Temperature: 61.0 F (16.1 C)
Dew Point: 60.1 F (15.6 C)
Relative Humidity: 96%
Pressure (altimeter): 29.59 in. Hg (1002 hPa)
Pressure tendency: 0.05 inches (1.7 hPa) lower than three hours ago
ob: KOAJ 090856Z AUTO 25003KT 9SM CLR 16/16 A2959 RMK AO2 SLP020 T01610156 56017
cycle: 9

Station Type Date Time Source
KOAJ TAF 2020/04/09 07:04 UTC NOAA

TAF
AMD KOAJ 090702Z 0907/1006 00000KT 5SM BR BKN150
FM091000 23006KT 5SM BR FEW050 SCT120
TEMPO 0912/0915 3SM -TSRA BKN050CB
FM091500 26008KT P6SM FEW050 SCT120
FM092000 28017G25KT P6SM SKC
AMD LTD TO CLD VIS AND WIND

Example: see airport list